Time;durP1;ratioP1;P1;durP2;ratioP2;P2;SDS_P1;SDS_P2;PMS_P1;PMS_P2;Temp;Humidity;BMP_temperature;BMP_pressure;BME280_temperature;BME280_humidity;BME280_pressure;Samples;Min_cycle;Max_cycle;Signal;HPM_P1;HPM_P2
2023/12/29 00:00:04;;;;;;;;;;;;;;;;;;5096624;28;19908;-69
2023/12/29 00:02:30;;;;;;;;;;;;;;;;;;5096887;28;19942;-69
2023/12/29 00:04:56;;;;;;;;;;;;;;;;;;5097343;28;19908;-69
2023/12/29 00:07:22;;;;;;;;;;;;;;;;;;5096440;28;20045;-69
2023/12/29 00:09:48;;;;;;;;;;;;;;;;;;5096530;28;19981;-69
2023/12/29 00:12:14;;;;;;;;;;;;;;;;;;5096834;28;19943;-69
2023/12/29 00:14:40;;;;;;;;;;;;;;;;;;5096518;28;19985;-69
2023/12/29 00:17:06;;;;;;;;;;;;;;;;;;5096799;28;19915;-70
2023/12/29 00:19:32;;;;;;;;;;;;;;;;;;5096836;28;19935;-69
2023/12/29 00:21:59;;;;;;;;;;;;;;;;;;5096474;28;19908;-69
2023/12/29 00:24:25;;;;;;;;;;;;;;;;;;5096580;28;20000;-68
2023/12/29 00:26:51;;;;;;;;;;;;;;;;;;5096650;28;20343;-69
2023/12/29 00:29:17;;;;;;;;;;;;;;;;;;5096025;28;19908;-69
2023/12/29 00:31:43;;;;;;;;;;;;;;;;;;5096513;28;19969;-69
2023/12/29 00:34:09;;;;;;;;;;;;;;;;;;5096169;28;19908;-69
2023/12/29 00:36:35;;;;;;;;;;;;;;;;;;5096414;28;19980;-69
2023/12/29 00:39:01;;;;;;;;;;;;;;;;;;5096499;28;19943;-69
2023/12/29 00:41:27;;;;;;;;;;;;;;;;;;5095762;28;19916;-69
2023/12/29 00:43:53;;;;;;;;;;;;;;;;;;5096122;28;19999;-70
2023/12/29 00:46:19;;;;;;;;;;;;;;;;;;5096274;28;19915;-70
2023/12/29 00:48:45;;;;;;;;;;;;;;;;;;5095923;28;19908;-69
2023/12/29 00:51:11;;;;;;;;;;;;;;;;;;5096175;28;19922;-70
2023/12/29 00:53:37;;;;;;;;;;;;;;;;;;5096425;28;19909;-69
2023/12/29 00:56:03;;;;;;;;;;;;;;;;;;5077518;28;19958;-69
2023/12/29 00:58:29;;;;;;;;;;;;;;;;;;5096336;28;19908;-69
2023/12/29 01:00:55;;;;;;;;;;;;;;;;;;5095970;28;19919;-69
2023/12/29 01:03:21;;;;;;;;;;;;;;;;;;5095628;28;19908;-69
2023/12/29 01:05:47;;;;;;;;;;;;;;;;;;5095897;28;19958;-69
2023/12/29 01:08:13;;;;;;;;;;;;;;;;;;5095780;28;19912;-69
2023/12/29 01:10:38;;;;;;;;;;;;;;;;;;5095350;28;19920;-70
2023/12/29 01:13:04;;;;;;;;;;;;;;;;;;5095785;28;20288;-70
2023/12/29 01:15:30;;;;;;;;;;;;;;;;;;5077574;28;19991;-67
2023/12/29 01:17:56;;;;;;;;;;;;;;;;;;5095235;28;19908;-67
2023/12/29 01:20:22;;;;;;;;;;;;;;;;;;5095546;28;19994;-68
2023/12/29 01:22:48;;;;;;;;;;;;;;;;;;5095543;28;19908;-70
2023/12/29 01:25:14;;;;;;;;;;;;;;;;;;5095093;28;19908;-70
2023/12/29 01:27:40;;;;;;;;;;;;;;;;;;5095374;28;19914;-67
2023/12/29 01:30:06;;;;;;;;;;;;;;;;;;5095307;28;20038;-68
2023/12/29 01:32:32;;;;;;;;;;;;;;;;;;5094916;28;19918;-69
2023/12/29 01:34:58;;;;;;;;;;;;;;;;;;5095312;28;19939;-69
2023/12/29 01:37:24;;;;;;;;;;;;;;;;;;5094858;28;19984;-68
2023/12/29 01:39:50;;;;;;;;;;;;;;;;;;5095257;28;20002;-68
2023/12/29 01:42:16;;;;;;;;;;;;;;;;;;5095136;28;19955;-69
2023/12/29 01:44:43;;;;;;;;;;;;;;;;;;5094861;28;20015;-68
2023/12/29 01:47:09;;;;;;;;;;;;;;;;;;5095306;28;20272;-69
2023/12/29 01:49:35;;;;;;;;;;;;;;;;;;5095291;28;19912;-69
2023/12/29 01:52:01;;;;;;;;;;;;;;;;;;5094658;28;19912;-70
2023/12/29 01:54:27;;;;;;;;;;;;;;;;;;5094171;28;20005;-69
2023/12/29 01:56:55;;;;;;;;;;;;;;;;;;5094934;28;19912;-69
2023/12/29 01:59:21;;;;;;;;;;;;;;;;;;5094611;28;20221;-69
2023/12/29 02:01:47;;;;;;;;;;;;;;;;;;5094967;28;19941;-69
2023/12/29 02:04:12;;;;;;;;;;;;;;;;;;5094852;28;19912;-69
2023/12/29 02:06:38;;;;;;;;;;;;;;;;;;5094483;28;19915;-69
2023/12/29 02:09:04;;;;;;;;;;;;;;;;;;5094522;28;19920;-69
2023/12/29 02:11:30;;;;;;;;;;;;;;;;;;5094667;28;19948;-69
2023/12/29 02:13:56;;;;;;;;;;;;;;;;;;5076011;28;19958;-69
2023/12/29 02:16:22;;;;;;;;;;;;;;;;;;5094556;28;19999;-69
2023/12/29 02:18:48;;;;;;;;;;;;;;;;;;5094488;28;19908;-69
2023/12/29 02:21:14;;;;;;;;;;;;;;;;;;5094122;28;19908;-69
2023/12/29 02:23:40;;;;;;;;;;;;;;;;;;5094705;28;19939;-69
2023/12/29 02:26:06;;;;;;;;;;;;;;;;;;5094524;28;19915;-69
2023/12/29 02:28:32;;;;;;;;;;;;;;;;;;5094045;28;19924;-69
2023/12/29 02:30:58;;;;;;;;;;;;;;;;;;5094220;28;20014;-69
2023/12/29 02:33:25;;;;;;;;;;;;;;;;;;5094277;28;19908;-69
2023/12/29 02:35:51;;;;;;;;;;;;;;;;;;5093918;28;19908;-69
2023/12/29 02:38:17;;;;;;;;;;;;;;;;;;5094171;28;19931;-70
2023/12/29 02:40:42;;;;;;;;;;;;;;;;;;5093818;28;19999;-69
2023/12/29 02:43:08;;;;;;;;;;;;;;;;;;5094148;28;19954;-69
2023/12/29 02:45:34;;;;;;;;;;;;;;;;;;5075987;28;19913;-69
2023/12/29 02:48:00;;;;;;;;;;;;;;;;;;5093682;28;19912;-69
2023/12/29 02:50:26;;;;;;;;;;;;;;;;;;5093885;28;19959;-69
2023/12/29 02:52:52;;;;;;;;;;;;;;;;;;5093992;28;19912;-69
2023/12/29 02:55:18;;;;;;;;;;;;;;;;;;5093595;28;19908;-69
2023/12/29 02:57:44;;;;;;;;;;;;;;;;;;5093972;28;19943;-69
2023/12/29 03:00:10;;;;;;;;;;;;;;;;;;5076086;28;19915;-69
2023/12/29 03:02:36;;;;;;;;;;;;;;;;;;5093669;28;19908;-69
2023/12/29 03:05:02;;;;;;;;;;;;;;;;;;5093675;28;20326;-69
2023/12/29 03:07:28;;;;;;;;;;;;;;;;;;5093787;28;19915;-69
2023/12/29 03:09:54;;;;;;;;;;;;;;;;;;5093094;28;19924;-69
2023/12/29 03:12:20;;;;;;;;;;;;;;;;;;5093812;28;20002;-69
2023/12/29 03:14:47;;;;;;;;;;;;;;;;;;5093709;28;19908;-69
2023/12/29 03:17:13;;;;;;;;;;;;;;;;;;5093387;28;19912;-69
2023/12/29 03:19:39;;;;;;;;;;;;;;;;;;5093755;28;19998;-69
2023/12/29 03:22:04;;;;;;;;;;;;;;;;;;5093627;28;19915;-69
2023/12/29 03:24:30;;;;;;;;;;;;;;;;;;5093284;28;19908;-69
2023/12/29 03:26:56;;;;;;;;;;;;;;;;;;5075546;28;19915;-69
2023/12/29 03:29:22;;;;;;;;;;;;;;;;;;5093634;28;20028;-69
2023/12/29 03:31:48;;;;;;;;;;;;;;;;;;5093238;28;19951;-69
2023/12/29 03:34:14;;;;;;;;;;;;;;;;;;5093638;28;19915;-69
2023/12/29 03:36:40;;;;;;;;;;;;;;;;;;5093561;28;19908;-69
2023/12/29 03:39:06;;;;;;;;;;;;;;;;;;5093209;28;20002;-70
2023/12/29 03:41:32;;;;;;;;;;;;;;;;;;5093668;28;20012;-70
2023/12/29 03:43:59;;;;;;;;;;;;;;;;;;5093107;28;19915;-70
2023/12/29 03:46:25;;;;;;;;;;;;;;;;;;5093476;28;19931;-70
2023/12/29 03:48:51;;;;;;;;;;;;;;;;;;5093613;28;19915;-70
2023/12/29 03:51:17;;;;;;;;;;;;;;;;;;5092980;28;19916;-69
2023/12/29 03:53:43;;;;;;;;;;;;;;;;;;5093374;28;20368;-69
2023/12/29 03:56:09;;;;;;;;;;;;;;;;;;5093641;28;19954;-70
2023/12/29 03:58:35;;;;;;;;;;;;;;;;;;5092950;28;19909;-70
2023/12/29 04:01:01;;;;;;;;;;;;;;;;;;5093374;28;20006;-71
2023/12/29 04:03:27;;;;;;;;;;;;;;;;;;5093288;28;19999;-70
2023/12/29 04:05:53;;;;;;;;;;;;;;;;;;5092904;28;19936;-70
2023/12/29 04:08:19;;;;;;;;;;;;;;;;;;5093216;28;19908;-70
2023/12/29 04:10:45;;;;;;;;;;;;;;;;;;5093051;28;19974;-70
2023/12/29 04:13:11;;;;;;;;;;;;;;;;;;5092925;28;19908;-70
2023/12/29 04:15:37;;;;;;;;;;;;;;;;;;5093247;28;19908;-70
2023/12/29 04:18:03;;;;;;;;;;;;;;;;;;5095307;28;20280;-70
2023/12/29 04:20:29;;;;;;;;;;;;;;;;;;5096760;28;19969;-70
2023/12/29 04:22:55;;;;;;;;;;;;;;;;;;5097520;28;20056;-70
2023/12/29 04:25:21;;;;;;;;;;;;;;;;;;5096775;28;19909;-70
2023/12/29 04:27:46;;;;;;;;;;;;;;;;;;5096312;28;19968;-70
2023/12/29 04:30:12;;;;;;;;;;;;;;;;;;5096538;28;19924;-70
2023/12/29 04:32:38;;;;;;;;;;;;;;;;;;5096592;28;19908;-70
2023/12/29 04:35:04;;;;;;;;;;;;;;;;;;5096189;28;20372;-70
2023/12/29 04:37:30;;;;;;;;;;;;;;;;;;5096481;28;19999;-71
2023/12/29 04:39:56;;;;;;;;;;;;;;;;;;5096490;28;19908;-71
2023/12/29 04:42:22;;;;;;;;;;;;;;;;;;5096007;28;20400;-70
2023/12/29 04:44:48;;;;;;;;;;;;;;;;;;5096800;28;20288;-70
2023/12/29 04:47:14;;;;;;;;;;;;;;;;;;5096307;28;20355;-70
2023/12/29 04:49:40;;;;;;;;;;;;;;;;;;5095972;28;20056;-70
2023/12/29 04:52:06;;;;;;;;;;;;;;;;;;5096251;28;19958;-70
2023/12/29 04:54:32;;;;;;;;;;;;;;;;;;5095736;28;19912;-70
2023/12/29 04:56:58;;;;;;;;;;;;;;;;;;5096113;28;19999;-70
2023/12/29 04:59:24;;;;;;;;;;;;;;;;;;5078027;28;19908;-70
2023/12/29 05:01:50;;;;;;;;;;;;;;;;;;5095691;28;19954;-70
2023/12/29 05:04:16;;;;;;;;;;;;;;;;;;5095978;28;19908;-70
2023/12/29 05:06:42;;;;;;;;;;;;;;;;;;5095848;28;19959;-70
2023/12/29 05:09:08;;;;;;;;;;;;;;;;;;5095365;28;19920;-69
2023/12/29 05:11:34;;;;;;;;;;;;;;;;;;5095801;28;19923;-71
2023/12/29 05:14:00;;;;;;;;;;;;;;;;;;5096081;28;20038;-70
2023/12/29 05:16:26;;;;;;;;;;;;;;;;;;5095396;28;19912;-70
2023/12/29 05:18:52;;;;;;;;;;;;;;;;;;5096032;28;19919;-69
2023/12/29 05:21:18;;;;;;;;;;;;;;;;;;5095687;28;19940;-70
2023/12/29 05:23:44;;;;;;;;;;;;;;;;;;5095251;28;20362;-70
2023/12/29 05:26:10;;;;;;;;;;;;;;;;;;5095609;28;19916;-70
2023/12/29 05:28:36;;;;;;;;;;;;;;;;;;5095504;28;19908;-70
2023/12/29 05:31:05;;;;;;;;;;;;;;;;;;5095133;28;19920;-70
2023/12/29 05:33:31;;;;;;;;;;;;;;;;;;5095487;28;19969;-70
2023/12/29 05:35:57;;;;;;;;;;;;;;;;;;5095652;28;19912;-70
2023/12/29 05:38:23;;;;;;;;;;;;;;;;;;5094909;28;20411;-70
2023/12/29 05:40:49;;;;;;;;;;;;;;;;;;5095275;28;20284;-70
2023/12/29 05:43:15;;;;;;;;;;;;;;;;;;5077090;28;19975;-70
2023/12/29 05:45:41;;;;;;;;;;;;;;;;;;5094760;28;19915;-70
2023/12/29 05:48:07;;;;;;;;;;;;;;;;;;5077022;28;19942;-69
2023/12/29 05:50:33;;;;;;;;;;;;;;;;;;5094946;28;19923;-69
2023/12/29 05:52:59;;;;;;;;;;;;;;;;;;5094964;28;19912;-69
2023/12/29 05:55:25;;;;;;;;;;;;;;;;;;5095096;28;19920;-69
2023/12/29 05:57:51;;;;;;;;;;;;;;;;;;5094586;28;19915;-69
2023/12/29 06:00:17;;;;;;;;;;;;;;;;;;5095131;28;20403;-69
2023/12/29 06:02:43;;;;;;;;;;;;;;;;;;5094881;28;19977;-69
2023/12/29 06:05:09;;;;;;;;;;;;;;;;;;5094395;28;19991;-69
2023/12/29 06:07:35;;;;;;;;;;;;;;;;;;5094700;28;19938;-69
2023/12/29 06:10:01;;;;;;;;;;;;;;;;;;5094442;28;20403;-69
2023/12/29 06:12:28;;;;;;;;;;;;;;;;;;5094267;28;19915;-69
2023/12/29 06:14:54;;;;;;;;;;;;;;;;;;5076388;28;19995;-69
2023/12/29 06:17:20;;;;;;;;;;;;;;;;;;5094487;28;20011;-69
2023/12/29 06:19:45;;;;;;;;;;;;;;;;;;5092982;28;20016;-67
2023/12/29 06:22:14;;;;;;;;;;;;;;;;;;5089735;28;19912;-68
2023/12/29 06:24:39;;;;;;;;;;;;;;;;;;5093802;28;19992;-67
2023/12/29 06:27:05;;;;;;;;;;;;;;;;;;5092770;28;20412;-66
2023/12/29 06:29:31;;;;;;;;;;;;;;;;;;5088461;28;20288;-67
2023/12/29 06:31:57;;;;;;;;;;;;;;;;;;5086694;28;19909;-67
2023/12/29 06:34:23;;;;;;;;;;;;;;;;;;5069414;28;19914;-68
2023/12/29 06:36:49;;;;;;;;;;;;;;;;;;5089181;28;19912;-68
2023/12/29 06:39:15;;;;;;;;;;;;;;;;;;5071189;28;19916;-67
2023/12/29 06:41:41;;;;;;;;;;;;;;;;;;5090394;28;19908;-68
2023/12/29 06:44:07;;;;;;;;;;;;;;;;;;5062675;28;19948;-67
2023/12/29 06:46:33;;;;;;;;;;;;;;;;;;5093237;28;20410;-67
2023/12/29 06:48:59;;;;;;;;;;;;;;;;;;5066430;28;19959;-68
2023/12/29 06:51:25;;;;;;;;;;;;;;;;;;5088597;28;19981;-68
2023/12/29 06:53:51;;;;;;;;;;;;;;;;;;5086242;28;19912;-65
2023/12/29 06:56:20;;;;;;;;;;;;;;;;;;5088411;28;19912;-67
2023/12/29 06:58:46;;;;;;;;;;;;;;;;;;5066621;28;20368;-67
2023/12/29 07:01:12;;;;;;;;;;;;;;;;;;5090793;28;20508;-66
2023/12/29 07:03:38;;;;;;;;;;;;;;;;;;5074564;28;19911;-67
2023/12/29 07:06:04;;;;;;;;;;;;;;;;;;5090714;28;19942;-67
2023/12/29 07:08:30;;;;;;;;;;;;;;;;;;5091964;28;19920;-69
2023/12/29 07:10:56;;;;;;;;;;;;;;;;;;5094581;28;19928;-66
2023/12/29 07:13:23;;;;;;;;;;;;;;;;;;5082236;28;20667;-65
2023/12/29 07:15:49;;;;;;;;;;;;;;;;;;5090252;28;19919;-66
2023/12/29 07:18:15;;;;;;;;;;;;;;;;;;5073604;28;19908;-67
2023/12/29 07:20:41;;;;;;;;;;;;;;;;;;5090344;28;20383;-67
2023/12/29 07:23:07;;;;;;;;;;;;;;;;;;5075142;28;19919;-67
2023/12/29 07:25:33;;;;;;;;;;;;;;;;;;5070204;28;19951;-68
2023/12/29 07:27:59;;;;;;;;;;;;;;;;;;5074101;28;19939;-68
2023/12/29 07:30:25;;;;;;;;;;;;;;;;;;5089790;28;20376;-68
2023/12/29 07:32:53;;;;;;;;;;;;;;;;;;5089339;28;19908;-66
2023/12/29 07:35:19;;;;;;;;;;;;;;;;;;5089292;28;20602;-66
2023/12/29 07:37:45;;;;;;;;;;;;;;;;;;5089228;28;19954;-67
2023/12/29 07:40:11;;;;;;;;;;;;;;;;;;5071059;28;19916;-66
2023/12/29 07:42:37;;;;;;;;;;;;;;;;;;5090713;28;19908;-68
2023/12/29 07:45:03;;;;;;;;;;;;;;;;;;5089903;28;19966;-70
2023/12/29 07:47:29;;;;;;;;;;;;;;;;;;5073725;28;19958;-67
2023/12/29 07:49:55;;;;;;;;;;;;;;;;;;5091611;28;20322;-68
2023/12/29 07:52:21;;;;;;;;;;;;;;;;;;5093566;28;19916;-66
2023/12/29 07:54:47;;;;;;;;;;;;;;;;;;5082932;28;19912;-68
2023/12/29 07:57:13;;;;;;;;;;;;;;;;;;5098752;28;20414;-68
2023/12/29 07:59:39;;;;;;;;;;;;;;;;;;5076352;28;21601;-69
2023/12/29 08:02:05;;;;;;;;;;;;;;;;;;5094600;28;20365;-68
2023/12/29 08:04:31;;;;;;;;;;;;;;;;;;5094336;28;19940;-68
2023/12/29 08:06:57;;;;;;;;;;;;;;;;;;5075786;28;20018;-67
2023/12/29 08:09:23;;;;;;;;;;;;;;;;;;5095106;28;19916;-67
2023/12/29 08:11:49;;;;;;;;;;;;;;;;;;5094730;28;19912;-66
2023/12/29 08:14:15;;;;;;;;;;;;;;;;;;5094648;28;20360;-68
2023/12/29 08:16:41;;;;;;;;;;;;;;;;;;5094164;28;19923;-66
2023/12/29 08:19:10;;;;;;;;;;;;;;;;;;5094092;28;19995;-68
2023/12/29 08:21:36;;;;;;;;;;;;;;;;;;5094891;28;20394;-68
2023/12/29 08:24:02;;;;;;;;;;;;;;;;;;5097052;28;20157;-68
2023/12/29 08:26:28;;;;;;;;;;;;;;;;;;5076931;28;19908;-67
2023/12/29 08:28:53;;;;;;;;;;;;;;;;;;5093926;28;19908;-68
2023/12/29 08:31:20;;;;;;;;;;;;;;;;;;5093318;28;19916;-68
2023/12/29 08:33:46;;;;;;;;;;;;;;;;;;5093162;28;19916;-67
2023/12/29 08:36:12;;;;;;;;;;;;;;;;;;5094154;28;19912;-68
2023/12/29 08:38:38;;;;;;;;;;;;;;;;;;5094293;28;20024;-67
2023/12/29 08:41:04;;;;;;;;;;;;;;;;;;5094002;28;20010;-68
2023/12/29 08:43:30;;;;;;;;;;;;;;;;;;5075741;28;19912;-68
2023/12/29 08:45:56;;;;;;;;;;;;;;;;;;5093755;28;19915;-69
2023/12/29 08:48:22;;;;;;;;;;;;;;;;;;5074310;28;19924;-67
2023/12/29 08:50:48;;;;;;;;;;;;;;;;;;5089113;28;19928;-68
2023/12/29 08:53:14;;;;;;;;;;;;;;;;;;5090682;28;19908;-68
2023/12/29 08:55:40;;;;;;;;;;;;;;;;;;5074369;28;19977;-67
2023/12/29 08:58:06;;;;;;;;;;;;;;;;;;5075323;28;20542;-69
2023/12/29 09:00:33;;;;;;;;;;;;;;;;;;5093339;28;19912;-70
2023/12/29 09:03:00;;;;;;;;;;;;;;;;;;5093268;28;20413;-69
2023/12/29 09:05:26;;;;;;;;;;;;;;;;;;5093166;28;19909;-69
2023/12/29 09:07:52;;;;;;;;;;;;;;;;;;5093613;28;19935;-68
2023/12/29 09:10:18;;;;;;;;;;;;;;;;;;5093962;28;19920;-69
2023/12/29 09:12:44;;;;;;;;;;;;;;;;;;5077339;28;19919;-69
2023/12/29 09:15:10;;;;;;;;;;;;;;;;;;5095130;28;19962;-71
2023/12/29 09:17:36;;;;;;;;;;;;;;;;;;5094468;28;20342;-68
2023/12/29 09:20:02;;;;;;;;;;;;;;;;;;5098966;28;19960;-68
2023/12/29 09:22:27;;;;;;;;;;;;;;;;;;5093422;28;19961;-68
2023/12/29 09:24:53;;;;;;;;;;;;;;;;;;5090805;28;19912;-71
2023/12/29 09:27:19;;;;;;;;;;;;;;;;;;5074854;28;19908;-70
2023/12/29 09:29:45;;;;;;;;;;;;;;;;;;5092224;28;19912;-70
2023/12/29 09:32:11;;;;;;;;;;;;;;;;;;5093110;28;19965;-70
2023/12/29 09:34:37;;;;;;;;;;;;;;;;;;5093034;28;19908;-72
2023/12/29 09:37:03;;;;;;;;;;;;;;;;;;5093259;28;19913;-70
2023/12/29 09:39:29;;;;;;;;;;;;;;;;;;5095033;28;19987;-69
2023/12/29 09:41:55;;;;;;;;;;;;;;;;;;5095070;28;19998;-69
2023/12/29 09:44:21;;;;;;;;;;;;;;;;;;5076392;28;19944;-68
2023/12/29 09:46:47;;;;;;;;;;;;;;;;;;5076874;28;19908;-68
2023/12/29 09:49:13;;;;;;;;;;;;;;;;;;5094616;28;20323;-69
2023/12/29 09:51:39;;;;;;;;;;;;;;;;;;5094278;28;20265;-69
2023/12/29 09:54:05;;;;;;;;;;;;;;;;;;5094682;28;19951;-69
2023/12/29 09:56:31;;;;;;;;;;;;;;;;;;5094468;28;19915;-69
2023/12/29 09:58:57;;;;;;;;;;;;;;;;;;5093852;28;19908;-69
2023/12/29 10:01:23;;;;;;;;;;;;;;;;;;5076308;28;19916;-68
2023/12/29 10:03:49;;;;;;;;;;;;;;;;;;5094163;28;19908;-69
2023/12/29 10:06:15;;;;;;;;;;;;;;;;;;5094535;28;19914;-68
2023/12/29 10:08:42;;;;;;;;;;;;;;;;;;5076213;28;19976;-69
2023/12/29 10:11:08;;;;;;;;;;;;;;;;;;5076861;28;20038;-69
2023/12/29 10:13:34;;;;;;;;;;;;;;;;;;5094571;28;19915;-67
2023/12/29 10:16:00;;;;;;;;;;;;;;;;;;5075828;28;20303;-67
2023/12/29 10:18:26;;;;;;;;;;;;;;;;;;5075174;28;19919;-68
2023/12/29 10:20:52;;;;;;;;;;;;;;;;;;5094018;28;19957;-67
2023/12/29 10:23:18;;;;;;;;;;;;;;;;;;5094328;28;19908;-67
2023/12/29 10:25:47;;;;;;;;;;;;;;;;;;5092968;28;19991;-70
2023/12/29 10:28:19;;;;;;;;;;;;;;;;;;5090177;28;19965;-67
2023/12/29 10:30:45;;;;;;;;;;;;;;;;;;5073656;28;19920;-68
2023/12/29 10:33:11;;;;;;;;;;;;;;;;;;5091120;28;20015;-69
2023/12/29 10:35:38;;;;;;;;;;;;;;;;;;5091886;28;20315;-69
2023/12/29 10:38:04;;;;;;;;;;;;;;;;;;5093872;28;19908;-71
2023/12/29 10:40:31;;;;;;;;;;;;;;;;;;5092799;28;19966;-69
2023/12/29 10:42:57;;;;;;;;;;;;;;;;;;5092540;28;19912;-69
2023/12/29 10:45:27;;;;;;;;;;;;;;;;;;5075070;28;19918;-69
2023/12/29 10:47:52;;;;;;;;;;;;;;;;;;5103293;28;20368;-69
2023/12/29 10:50:18;;;;;;;;;;;;;;;;;;5093084;28;19939;-69
2023/12/29 10:52:46;;;;;;;;;;;;;;;;;;5091716;28;19909;-68
2023/12/29 10:55:12;;;;;;;;;;;;;;;;;;5095616;28;19924;-70
2023/12/29 10:57:38;;;;;;;;;;;;;;;;;;5095857;28;19912;-68
2023/12/29 11:00:05;;;;;;;;;;;;;;;;;;5091152;28;19913;-70
2023/12/29 11:02:32;;;;;;;;;;;;;;;;;;5091430;28;20010;-68
2023/12/29 11:04:58;;;;;;;;;;;;;;;;;;5090099;28;19919;-68
2023/12/29 11:07:24;;;;;;;;;;;;;;;;;;5095485;28;19916;-66
2023/12/29 11:09:49;;;;;;;;;;;;;;;;;;5094937;28;19920;-69
2023/12/29 11:12:17;;;;;;;;;;;;;;;;;;5093627;28;19912;-69
2023/12/29 11:14:46;;;;;;;;;;;;;;;;;;5092692;28;20279;-70
2023/12/29 11:19:57;;;;;;;;;;;;;;;;;;5093530;28;19954;-68
2023/12/29 11:22:30;;;;;;;;;;;;;;;;;;5074916;28;19962;-69
2023/12/29 11:24:58;;;;;;;;;;;;;;;;;;5093444;28;19909;-69
2023/12/29 11:27:24;;;;;;;;;;;;;;;;;;5078479;28;19916;-71
2023/12/29 11:29:50;;;;;;;;;;;;;;;;;;5097228;28;19920;-69
2023/12/29 11:32:16;;;;;;;;;;;;;;;;;;5097707;28;20280;-69
2023/12/29 11:34:42;;;;;;;;;;;;;;;;;;5097566;28;19918;-68
2023/12/29 11:37:08;;;;;;;;;;;;;;;;;;5097283;28;19959;-68
2023/12/29 11:39:34;;;;;;;;;;;;;;;;;;5097301;28;19908;-68
2023/12/29 11:42:00;;;;;;;;;;;;;;;;;;5097438;28;19917;-71
2023/12/29 11:44:33;;;;;;;;;;;;;;;;;;5097380;28;19913;-71
2023/12/29 11:48:29;;;;;;;;;;;;;;;;;;5091597;27;19923;-72
2023/12/29 11:50:55;;;;;;;;;;;;;;;;;;5090741;28;19998;-72
2023/12/29 11:53:21;;;;;;;;;;;;;;;;;;5091128;28;19962;-72
2023/12/29 11:58:05;;;;;;;;;;;;;;;;;;5091045;27;20297;-71
2023/12/29 12:00:31;;;;;;;;;;;;;;;;;;5091453;28;19920;-70
2023/12/29 12:02:57;;;;;;;;;;;;;;;;;;5089835;28;19908;-72
2023/12/29 12:07:07;;;;;;;;;;;;;;;;;;5091830;28;19923;-71
2023/12/29 12:09:34;;;;;;;;;;;;;;;;;;5089868;28;19995;-71
2023/12/29 12:12:00;;;;;;;;;;;;;;;;;;5089750;28;20296;-71
2023/12/29 12:14:27;;;;;;;;;;;;;;;;;;5091159;28;19912;-71
2023/12/29 12:16:53;;;;;;;;;;;;;;;;;;5089691;28;19913;-71
2023/12/29 12:24:55;;;;;;;;;;;;;;;;;;5091174;27;19916;-70
2023/12/29 12:27:25;;;;;;;;;;;;;;;;;;5091448;28;20381;-71
2023/12/29 12:29:51;;;;;;;;;;;;;;;;;;5091178;28;19915;-71
2023/12/29 12:32:17;;;;;;;;;;;;;;;;;;5089569;28;19915;-71
2023/12/29 12:35:16;;;;;;;;;;;;;;;;;;5091347;27;19917;-71
2023/12/29 12:37:42;;;;;;;;;;;;;;;;;;5089956;28;19919;-70
2023/12/29 12:40:08;;;;;;;;;;;;;;;;;;5090764;28;19908;-71
2023/12/29 12:42:34;;;;;;;;;;;;;;;;;;5089812;28;20261;-70
2023/12/29 12:47:26;;;;;;;;;;;;;;;;;;5173401;27;19915;-71
2023/12/29 12:49:52;;;;;;;;;;;;;;;;;;5173555;27;20323;-71
2023/12/29 12:53:49;;;;;;;;;;;;;;;;;;5090944;27;19916;-71
2023/12/29 13:00:17;;;;;;;;;;;;;;;;;;5111853;27;19916;-70
2023/12/29 13:02:43;;;;;;;;;;;;;;;;;;5111436;28;19912;-71
2023/12/29 13:06:16;;;;;;;;;;;;;;;;;;5091745;27;19916;-72
2023/12/29 13:08:42;;;;;;;;;;;;;;;;;;5090837;28;20430;-72
2023/12/29 13:11:08;;;;;;;;;;;;;;;;;;5091181;28;19916;-72
2023/12/29 13:15:29;;;;;;;;;;;;;;;;;;5091026;27;19939;-71
2023/12/29 13:20:26;;;;;;;;;;;;;;;;;;5091460;27;19922;-70
2023/12/29 13:23:45;;;;;;;;;;;;;;;;;;5091439;27;19923;-71
2023/12/29 13:26:11;;;;;;;;;;;;;;;;;;5091248;28;20351;-71
2023/12/29 13:28:37;;;;;;;;;;;;;;;;;;5090871;28;19908;-72
2023/12/29 13:31:03;;;;;;;;;;;;;;;;;;5091126;28;19908;-72
2023/12/29 13:34:07;;;;;;;;;;;;;;;;;;5091410;27;19916;-71
2023/12/29 13:38:53;;;;;;;;;;;;;;;;;;5111697;27;19916;-71
2023/12/29 13:41:33;;;;;;;;;;;;;;;;;;5111699;27;19918;-70
2023/12/29 13:43:59;;;;;;;;;;;;;;;;;;5111181;28;19912;-71
2023/12/29 13:47:13;;;;;;;;;;;;;;;;;;5091533;27;19916;-71
2023/12/29 13:49:39;;;;;;;;;;;;;;;;;;5090822;28;19919;-71
2023/12/29 13:52:05;;;;;;;;;;;;;;;;;;5091335;28;19912;-71
2023/12/29 13:58:53;;;;;;;;;;;;;;;;;;5091676;27;19916;-71
2023/12/29 14:02:35;;;;;;;;;;;;;;;;;;5071177;28;20403;-71
2023/12/29 14:06:13;;;;;;;;;;;;;;;;;;5091777;27;19938;-71
2023/12/29 14:12:31;;;;;;;;;;;;;;;;;;5112051;27;20014;-71
2023/12/29 14:14:57;;;;;;;;;;;;;;;;;;5111570;28;20003;-71
2023/12/29 14:17:23;;;;;;;;;;;;;;;;;;5111113;28;19908;-70
2023/12/29 14:19:49;;;;;;;;;;;;;;;;;;5093242;28;20394;-71
2023/12/29 14:22:15;;;;;;;;;;;;;;;;;;5111650;28;19908;-72
2023/12/29 14:24:41;;;;;;;;;;;;;;;;;;5111197;28;19908;-71
2023/12/29 14:27:32;;;;;;;;;;;;;;;;;;5091865;27;19920;-70
2023/12/29 14:29:58;;;;;;;;;;;;;;;;;;5089934;28;20015;-72
2023/12/29 14:37:09;;;;;;;;;;;;;;;;;;5091916;27;19917;-71
2023/12/29 14:40:19;;;;;;;;;;;;;;;;;;5090980;27;19916;-70
2023/12/29 14:42:45;;;;;;;;;;;;;;;;;;5091281;28;19951;-70
2023/12/29 14:45:12;;;;;;;;;;;;;;;;;;5089417;28;19909;-70
2023/12/29 14:47:38;;;;;;;;;;;;;;;;;;5089896;28;19999;-72
2023/12/29 14:50:04;;;;;;;;;;;;;;;;;;5091074;28;19970;-70
2023/12/29 14:52:30;;;;;;;;;;;;;;;;;;5090866;28;19915;-71
2023/12/29 14:54:56;;;;;;;;;;;;;;;;;;5091255;28;19908;-70
2023/12/29 14:57:22;;;;;;;;;;;;;;;;;;5090856;28;19908;-70
2023/12/29 14:59:48;;;;;;;;;;;;;;;;;;5089115;28;19934;-70
2023/12/29 15:02:14;;;;;;;;;;;;;;;;;;5090651;28;19954;-70
2023/12/29 15:04:39;;;;;;;;;;;;;;;;;;5090614;28;19951;-70
2023/12/29 15:07:05;;;;;;;;;;;;;;;;;;5090334;28;19913;-70
2023/12/29 15:09:33;;;;;;;;;;;;;;;;;;5090690;28;19912;-70
2023/12/29 15:11:59;;;;;;;;;;;;;;;;;;5090507;28;19909;-71
2023/12/29 15:14:25;;;;;;;;;;;;;;;;;;5090299;28;19915;-71
2023/12/29 15:16:52;;;;;;;;;;;;;;;;;;5090620;28;19915;-71
2023/12/29 15:19:18;;;;;;;;;;;;;;;;;;5090390;28;20402;-71
2023/12/29 15:21:44;;;;;;;;;;;;;;;;;;5088832;28;19939;-72
2023/12/29 15:24:10;;;;;;;;;;;;;;;;;;5090425;28;20388;-72
2023/12/29 15:26:36;;;;;;;;;;;;;;;;;;5090609;28;20365;-71
2023/12/29 15:29:02;;;;;;;;;;;;;;;;;;5089861;28;19908;-71
2023/12/29 15:31:28;;;;;;;;;;;;;;;;;;5090248;28;20418;-71
2023/12/29 15:33:54;;;;;;;;;;;;;;;;;;5090254;28;19954;-71
2023/12/29 15:36:22;;;;;;;;;;;;;;;;;;5088516;28;19908;-70
2023/12/29 15:38:48;;;;;;;;;;;;;;;;;;5098131;28;19931;-70
2023/12/29 15:41:14;;;;;;;;;;;;;;;;;;5110395;28;19908;-71
2023/12/29 15:43:40;;;;;;;;;;;;;;;;;;5091828;28;19908;-71
2023/12/29 15:46:06;;;;;;;;;;;;;;;;;;5110328;28;19908;-71
2023/12/29 15:48:32;;;;;;;;;;;;;;;;;;5109848;28;19944;-70
2023/12/29 15:50:58;;;;;;;;;;;;;;;;;;5082233;28;19912;-70
2023/12/29 15:53:24;;;;;;;;;;;;;;;;;;5096602;28;19907;-71
2023/12/29 15:55:50;;;;;;;;;;;;;;;;;;5096413;28;19914;-71
2023/12/29 15:58:16;;;;;;;;;;;;;;;;;;5096472;28;19965;-71
2023/12/29 16:00:42;;;;;;;;;;;;;;;;;;5096702;28;19912;-71
2023/12/29 16:03:08;;;;;;;;;;;;;;;;;;5077928;28;19912;-71
2023/12/29 16:05:34;;;;;;;;;;;;;;;;;;5096451;28;19914;-71
2023/12/29 16:08:00;;;;;;;;;;;;;;;;;;5096438;28;19942;-71
2023/12/29 16:10:26;;;;;;;;;;;;;;;;;;5095994;28;19908;-71
2023/12/29 16:12:52;;;;;;;;;;;;;;;;;;5096327;28;20007;-71
2023/12/29 16:15:18;;;;;;;;;;;;;;;;;;5096395;28;19923;-71
2023/12/29 16:17:44;;;;;;;;;;;;;;;;;;5095850;28;19912;-71
2023/12/29 16:20:10;;;;;;;;;;;;;;;;;;5096383;28;19917;-71
2023/12/29 16:22:36;;;;;;;;;;;;;;;;;;5096468;28;20289;-71
2023/12/29 16:25:03;;;;;;;;;;;;;;;;;;5077880;28;19908;-71
2023/12/29 16:27:29;;;;;;;;;;;;;;;;;;5077938;28;19965;-71
2023/12/29 16:29:55;;;;;;;;;;;;;;;;;;5096041;28;19912;-71
2023/12/29 16:32:32;;;;;;;;;;;;;;;;;;5095699;28;20003;-71
2023/12/29 16:34:58;;;;;;;;;;;;;;;;;;5096128;28;19912;-71
2023/12/29 16:37:25;;;;;;;;;;;;;;;;;;5078006;28;19915;-71
2023/12/29 16:39:52;;;;;;;;;;;;;;;;;;5095292;28;19924;-71
2023/12/29 16:42:19;;;;;;;;;;;;;;;;;;5077420;28;19954;-71
2023/12/29 16:44:45;;;;;;;;;;;;;;;;;;5095364;28;19908;-72
2023/12/29 16:47:11;;;;;;;;;;;;;;;;;;5095474;28;19930;-72
2023/12/29 16:49:37;;;;;;;;;;;;;;;;;;5095548;28;19969;-72
2023/12/29 16:52:03;;;;;;;;;;;;;;;;;;5076822;28;19908;-72
2023/12/29 16:54:33;;;;;;;;;;;;;;;;;;5095394;28;20046;-71
2023/12/29 16:56:59;;;;;;;;;;;;;;;;;;5077141;28;19908;-70
2023/12/29 16:59:25;;;;;;;;;;;;;;;;;;5095002;28;20402;-70
2023/12/29 17:01:51;;;;;;;;;;;;;;;;;;5094300;28;19908;-71
2023/12/29 17:04:17;;;;;;;;;;;;;;;;;;5095314;28;19912;-71
2023/12/29 17:06:43;;;;;;;;;;;;;;;;;;5094863;28;19999;-72
2023/12/29 17:09:09;;;;;;;;;;;;;;;;;;5095111;28;19919;-70
2023/12/29 17:11:35;;;;;;;;;;;;;;;;;;5095115;28;19969;-72
2023/12/29 17:14:00;;;;;;;;;;;;;;;;;;5094704;28;19908;-72
2023/12/29 17:16:29;;;;;;;;;;;;;;;;;;5094425;28;19912;-72
2023/12/29 17:18:55;;;;;;;;;;;;;;;;;;5094282;28;19962;-72
2023/12/29 17:21:21;;;;;;;;;;;;;;;;;;5076280;28;20369;-71
2023/12/29 17:23:47;;;;;;;;;;;;;;;;;;5095051;28;20361;-71
2023/12/29 17:26:14;;;;;;;;;;;;;;;;;;5094271;28;20439;-72